Time;durP1;ratioP1;P1;durP2;ratioP2;P2;SDS_P1;SDS_P2;PMS_P1;PMS_P2;Temp;Humidity;BMP_temperature;BMP_pressure;BME280_temperature;BME280_humidity;BME280_pressure;Samples;Min_cycle;Max_cycle;Signal;HPM_P1;HPM_P2
2023/05/24 00:01:46;;;;;;;14.98;4.20;;;12.70;99.90;;;;;;5065418;28;20141;-75
2023/05/24 00:04:13;;;;;;;14.68;3.67;;;12.70;99.90;;;;;;5044914;28;20039;-74
2023/05/24 00:06:40;;;;;;;9.15;3.38;;;12.70;99.90;;;;;;5061679;28;20016;-74
2023/05/24 00:09:06;;;;;;;7.43;3.28;;;12.60;99.90;;;;;;5060104;28;20037;-74
2023/05/24 00:11:32;;;;;;;12.65;3.08;;;12.60;99.90;;;;;;5064859;28;20013;-74
2023/05/24 00:13:58;;;;;;;11.73;3.30;;;12.60;99.90;;;;;;5046349;28;20092;-74
2023/05/24 00:16:24;;;;;;;12.27;3.10;;;12.50;99.90;;;;;;5064462;28;20081;-74
2023/05/24 00:18:51;;;;;;;12.10;3.22;;;12.50;99.90;;;;;;5065576;28;20025;-74
2023/05/24 00:21:17;;;;;;;12.75;3.03;;;12.40;99.90;;;;;;5063729;28;20024;-75
2023/05/24 00:23:44;;;;;;;14.75;3.28;;;12.40;99.90;;;;;;5047037;28;20037;-75
2023/05/24 00:26:10;;;;;;;13.48;3.50;;;12.40;99.90;;;;;;5065660;28;20025;-75
2023/05/24 00:28:35;;;;;;;13.55;3.13;;;12.30;99.90;;;;;;5066571;28;20392;-75
2023/05/24 00:31:01;;;;;;;12.20;3.40;;;12.30;99.90;;;;;;5064288;28;20036;-74
2023/05/24 00:33:28;;;;;;;14.73;3.20;;;12.30;99.90;;;;;;5058218;28;20036;-74
2023/05/24 00:35:56;;;;;;;13.45;3.58;;;12.30;99.90;;;;;;5070248;28;20021;-74
2023/05/24 00:38:24;;;;;;;10.52;3.00;;;12.20;99.90;;;;;;5062164;28;20017;-74
2023/05/24 00:40:50;;;;;;;14.50;3.42;;;12.20;99.90;;;;;;5045912;28;20038;-75
2023/05/24 00:43:16;;;;;;;13.27;3.00;;;12.20;99.90;;;;;;5070661;28;20506;-74
2023/05/24 00:45:41;;;;;;;12.52;3.10;;;12.10;99.90;;;;;;5063710;28;20722;-74
2023/05/24 00:48:09;;;;;;;10.80;3.10;;;12.10;99.90;;;;;;5063460;28;20020;-74
2023/05/24 00:50:36;;;;;;;11.85;2.67;;;12.10;99.90;;;;;;5036475;28;20025;-74
2023/05/24 00:53:03;;;;;;;9.57;3.30;;;12.00;99.90;;;;;;5054248;28;20040;-74
2023/05/24 00:55:29;;;;;;;10.38;3.47;;;12.00;99.90;;;;;;5053769;28;20481;-73
2023/05/24 00:57:58;;;;;;;15.60;3.53;;;12.00;99.90;;;;;;5053942;28;20056;-74
2023/05/24 01:00:26;;;;;;;16.73;3.70;;;11.90;99.90;;;;;;5054282;28;20401;-73
2023/05/24 01:02:53;;;;;;;13.18;3.50;;;11.90;99.90;;;;;;5036291;28;20469;-74
2023/05/24 01:05:22;;;;;;;10.38;3.75;;;11.90;99.90;;;;;;5059272;28;20016;-73
2023/05/24 01:08:11;;;;;;;9.43;3.25;;;11.90;99.90;;;;;;5054913;28;20108;-74
2023/05/24 01:10:50;;;;;;;13.10;4.15;;;11.80;99.90;;;;;;5059733;28;20021;-74
2023/05/24 01:13:44;;;;;;;14.48;3.70;;;11.80;99.90;;;;;;5073581;28;20499;-73
2023/05/24 01:16:16;;;;;;;15.18;4.22;;;11.70;99.90;;;;;;5074264;28;20534;-74
2023/05/24 01:19:10;;;;;;;10.88;3.47;;;11.70;99.90;;;;;;5074150;28;20472;-74
2023/05/24 01:22:00;;;;;;;17.55;4.20;;;11.70;99.90;;;;;;5073581;28;20051;-73
2023/05/24 01:24:31;;;;;;;13.55;3.70;;;11.60;99.90;;;;;;5074109;28;20477;-74
2023/05/24 01:27:10;;;;;;;10.98;3.45;;;11.60;99.90;;;;;;5073810;28;20017;-73
2023/05/24 01:29:37;;;;;;;14.23;3.03;;;11.60;99.90;;;;;;5073781;28;20043;-73
2023/05/24 01:32:03;;;;;;;14.43;3.97;;;11.60;99.90;;;;;;5058680;28;20044;-74
2023/05/24 01:34:29;;;;;;;12.60;3.20;;;11.50;99.90;;;;;;5058141;28;20024;-73
2023/05/24 01:36:55;;;;;;;15.07;3.72;;;11.50;99.90;;;;;;5065746;28;20493;-73
2023/05/24 01:39:24;;;;;;;7.28;3.28;;;11.50;99.90;;;;;;5052805;28;20128;-74
2023/05/24 01:42:07;;;;;;;11.32;3.75;;;11.40;99.90;;;;;;5035293;28;20031;-73
2023/05/24 01:44:46;;;;;;;15.82;4.25;;;11.40;99.90;;;;;;5053544;28;20485;-73
2023/05/24 01:47:18;;;;;;;14.68;3.83;;;11.40;99.90;;;;;;5053656;28;20059;-73
2023/05/24 01:49:49;;;;;;;13.95;3.95;;;11.40;99.90;;;;;;5053376;28;20094;-73
2023/05/24 01:52:21;;;;;;;17.08;3.75;;;11.40;99.90;;;;;;5053351;28;20086;-73
2023/05/24 01:54:51;;;;;;;13.18;3.95;;;11.30;99.90;;;;;;5053331;28;20431;-74
2023/05/24 01:57:22;;;;;;;14.15;3.80;;;11.30;99.90;;;;;;5053408;28;20025;-73
2023/05/24 01:59:50;;;;;;;10.48;3.55;;;11.30;99.90;;;;;;5053104;28;20021;-73
2023/05/24 02:02:16;;;;;;;17.13;4.65;;;11.30;99.90;;;;;;5053057;28;20510;-73
2023/05/24 02:04:42;;;;;;;17.55;4.90;;;11.20;99.90;;;;;;5052707;28;20032;-73
2023/05/24 02:07:08;;;;;;;11.65;3.70;;;11.20;99.90;;;;;;5053347;28;20021;-73
2023/05/24 02:09:33;;;;;;;16.02;4.30;;;11.20;99.90;;;;;;5059101;28;20036;-73
2023/05/24 02:11:59;;;;;;;17.77;3.67;;;11.20;99.90;;;;;;5075838;28;20032;-73
2023/05/24 02:14:25;;;;;;;13.00;3.58;;;11.20;99.90;;;;;;5072035;28;20036;-73
2023/05/24 02:16:51;;;;;;;13.27;3.90;;;11.10;99.90;;;;;;5072350;28;20051;-73
2023/05/24 02:19:17;;;;;;;7.03;3.45;;;11.10;99.90;;;;;;5072657;28;20064;-73
2023/05/24 02:21:42;;;;;;;12.10;4.15;;;11.10;99.90;;;;;;5072940;28;20017;-74
2023/05/24 02:24:11;;;;;;;12.98;4.43;;;11.10;99.90;;;;;;5054074;28;20029;-73
2023/05/24 02:26:37;;;;;;;12.82;4.05;;;11.10;99.90;;;;;;5072604;28;20376;-73
2023/05/24 02:29:03;;;;;;;15.23;4.85;;;11.00;99.90;;;;;;5072000;28;20500;-73
2023/05/24 02:31:29;;;;;;;12.40;4.25;;;11.00;99.90;;;;;;5072555;28;20021;-72
2023/05/24 02:33:57;;;;;;;12.82;4.25;;;11.00;99.90;;;;;;5072439;28;20051;-73
2023/05/24 02:36:23;;;;;;;10.52;3.97;;;11.00;99.90;;;;;;5072594;28;20023;-73
2023/05/24 02:38:49;;;;;;;13.23;4.07;;;10.90;99.90;;;;;;5072450;28;20542;-73
2023/05/24 02:41:17;;;;;;;10.02;3.83;;;10.90;99.90;;;;;;5072842;28;20025;-73
2023/05/24 02:43:49;;;;;;;9.70;4.07;;;10.90;99.90;;;;;;5072582;28;20032;-73
2023/05/24 02:46:16;;;;;;;11.77;4.78;;;10.80;99.90;;;;;;5072600;28;20388;-72
2023/05/24 02:48:42;;;;;;;13.27;4.00;;;10.80;99.90;;;;;;5054644;28;20028;-73
2023/05/24 02:51:07;;;;;;;16.15;4.70;;;10.80;99.90;;;;;;5072695;28;20024;-73
2023/05/24 02:53:33;;;;;;;21.38;5.50;;;10.80;99.90;;;;;;5054442;28;20099;-73
2023/05/24 02:55:59;;;;;;;10.80;3.75;;;10.70;99.90;;;;;;5072753;28;20021;-73
2023/05/24 02:58:29;;;;;;;15.10;4.03;;;10.70;99.90;;;;;;5072639;28;20029;-73
2023/05/24 03:00:55;;;;;;;17.13;4.47;;;10.60;99.90;;;;;;5072174;28;20051;-73
2023/05/24 03:03:20;;;;;;;14.52;4.80;;;10.40;99.90;;;;;;5054352;28;20453;-73
2023/05/24 03:05:46;;;;;;;13.63;3.95;;;10.30;99.90;;;;;;5071398;28;20025;-73
2023/05/24 03:08:12;;;;;;;20.25;5.13;;;10.20;99.90;;;;;;5071792;28;20054;-73
2023/05/24 03:10:38;;;;;;;12.48;4.80;;;10.10;99.90;;;;;;5072264;28;20063;-72
2023/05/24 03:13:03;;;;;;;14.88;4.40;;;10.20;99.90;;;;;;5072361;28;20032;-73
2023/05/24 03:15:29;;;;;;;16.92;4.45;;;10.20;99.90;;;;;;5054141;28;20568;-73
2023/05/24 03:17:55;;;;;;;11.52;4.75;;;10.30;99.90;;;;;;5072381;28;20077;-72
2023/05/24 03:20:22;;;;;;;11.85;4.32;;;10.00;99.90;;;;;;5072312;28;20516;-73
2023/05/24 03:22:48;;;;;;;18.02;5.38;;;10.10;99.90;;;;;;5072539;28;20020;-73
2023/05/24 03:25:14;;;;;;;11.82;4.30;;;10.10;99.90;;;;;;5072423;28;20033;-72
2023/05/24 03:27:39;;;;;;;18.98;5.47;;;10.20;99.90;;;;;;5056169;28;20036;-72
2023/05/24 03:30:06;;;;;;;15.45;4.78;;;10.20;99.90;;;;;;5069476;28;20121;-73
2023/05/24 03:32:32;;;;;;;11.00;5.03;;;10.30;99.90;;;;;;5062379;28;20032;-72
2023/05/24 03:35:00;;;;;;;13.38;4.57;;;10.30;99.90;;;;;;5075295;28;20036;-73
2023/05/24 03:37:26;;;;;;;14.10;4.85;;;10.20;99.90;;;;;;5075081;28;20020;-72
2023/05/24 03:39:52;;;;;;;16.42;5.28;;;10.20;99.90;;;;;;5076225;28;20033;-72
2023/05/24 03:42:18;;;;;;;13.60;4.65;;;10.20;99.90;;;;;;5075859;28;20586;-72
2023/05/24 03:44:44;;;;;;;9.98;4.47;;;10.20;99.90;;;;;;5075760;28;20162;-72
2023/05/24 03:47:09;;;;;;;14.13;5.47;;;10.30;99.90;;;;;;5076018;28;20021;-72
2023/05/24 03:49:35;;;;;;;14.40;4.95;;;10.20;99.90;;;;;;5075391;28;20033;-73
2023/05/24 03:52:01;;;;;;;20.02;6.20;;;10.20;99.90;;;;;;5076045;28;20028;-72
2023/05/24 03:54:26;;;;;;;15.50;5.95;;;10.10;99.90;;;;;;5075524;28;20020;-72
2023/05/24 03:56:52;;;;;;;16.92;4.80;;;10.20;99.90;;;;;;5074469;28;20473;-72
2023/05/24 03:59:18;;;;;;;13.45;4.57;;;10.10;99.90;;;;;;5060054;28;20472;-73
2023/05/24 04:01:44;;;;;;;16.38;5.75;;;10.10;99.90;;;;;;5075714;28;20104;-72
2023/05/24 04:04:10;;;;;;;12.93;4.38;;;10.10;99.90;;;;;;5075525;28;20468;-72
2023/05/24 04:06:36;;;;;;;18.92;6.00;;;10.10;99.90;;;;;;5075194;28;20542;-72
2023/05/24 04:09:04;;;;;;;16.08;4.82;;;10.10;99.90;;;;;;5057657;28;20048;-72
2023/05/24 04:11:31;;;;;;;12.73;5.05;;;10.10;99.90;;;;;;5075094;28;20024;-72
2023/05/24 04:14:00;;;;;;;15.05;5.03;;;10.00;99.90;;;;;;5057113;28;20032;-72
2023/05/24 04:16:26;;;;;;;13.57;5.40;;;10.00;99.90;;;;;;5062162;28;20082;-72
2023/05/24 04:18:56;;;;;;;15.55;5.53;;;10.00;99.90;;;;;;5055480;28;20053;-72
2023/05/24 04:21:22;;;;;;;15.35;5.95;;;10.00;99.90;;;;;;5055527;28;20021;-72
2023/05/24 04:23:47;;;;;;;14.95;5.25;;;10.00;99.90;;;;;;5055545;28;20027;-72
2023/05/24 04:26:14;;;;;;;18.40;6.22;;;10.00;99.90;;;;;;5055484;28;20096;-72
2023/05/24 04:28:41;;;;;;;17.40;5.32;;;10.10;99.90;;;;;;5053755;28;20021;-72
2023/05/24 04:31:08;;;;;;;17.38;5.40;;;10.10;99.90;;;;;;5037023;28;20048;-72
2023/05/24 04:33:35;;;;;;;12.93;5.75;;;10.10;99.90;;;;;;5055230;28;20388;-72
2023/05/24 04:36:00;;;;;;;15.95;5.40;;;10.10;99.90;;;;;;5055241;28;20048;-72
2023/05/24 04:38:31;;;;;;;10.73;5.00;;;10.10;99.90;;;;;;5054868;28;20469;-72
2023/05/24 04:41:00;;;;;;;16.90;5.93;;;10.10;99.90;;;;;;5060111;28;20035;-73
2023/05/24 04:43:26;;;;;;;15.30;5.80;;;10.10;99.90;;;;;;5075044;28;20477;-73
2023/05/24 04:45:53;;;;;;;12.93;5.93;;;10.10;99.90;;;;;;5075143;28;20035;-74
2023/05/24 04:48:23;;;;;;;13.52;5.57;;;10.10;99.90;;;;;;5074936;28;20058;-72
2023/05/24 04:50:57;;;;;;;17.30;6.18;;;10.20;99.90;;;;;;5055123;28;20033;-74
2023/05/24 04:53:23;;;;;;;17.70;6.57;;;10.20;99.90;;;;;;5055050;28;20032;-74
2023/05/24 04:55:49;;;;;;;12.98;5.70;;;10.20;99.90;;;;;;5054762;28;20028;-73
2023/05/24 04:58:15;;;;;;;25.50;6.60;;;10.20;99.90;;;;;;5054634;28;20044;-74
2023/05/24 05:00:42;;;;;;;20.00;6.95;;;10.20;99.90;;;;;;5059261;28;20031;-74
2023/05/24 05:03:08;;;;;;;22.33;7.30;;;10.30;99.90;;;;;;5072894;28;20048;-76
2023/05/24 05:05:33;;;;;;;18.67;6.05;;;10.30;99.90;;;;;;5054713;28;20427;-73
2023/05/24 05:08:00;;;;;;;18.45;6.70;;;10.30;99.90;;;;;;5054227;28;20029;-75
2023/05/24 05:10:26;;;;;;;17.95;6.78;;;10.40;99.90;;;;;;5058810;28;20484;-75
2023/05/24 05:12:52;;;;;;;19.05;6.32;;;10.40;99.90;;;;;;5059011;28;20029;-75
2023/05/24 05:15:21;;;;;;;18.92;6.07;;;10.40;99.90;;;;;;5066050;28;20032;-73
2023/05/24 05:17:46;;;;;;;20.25;6.70;;;10.50;99.90;;;;;;5074256;28;20109;-73
2023/05/24 05:20:12;;;;;;;13.90;5.25;;;10.50;99.90;;;;;;5074217;28;20141;-73
2023/05/24 05:22:38;;;;;;;21.63;6.25;;;10.50;99.90;;;;;;5074219;28;20025;-74
2023/05/24 05:25:04;;;;;;;19.55;6.70;;;10.50;99.90;;;;;;5074088;28;20128;-73
2023/05/24 05:27:30;;;;;;;21.08;7.25;;;10.60;99.90;;;;;;5073850;28;20070;-74
2023/05/24 05:29:55;;;;;;;26.45;7.88;;;10.60;99.90;;;;;;5073770;28;20037;-74
2023/05/24 05:32:21;;;;;;;30.27;8.77;;;10.70;99.90;;;;;;5073884;28;20374;-74
2023/05/24 05:34:47;;;;;;;16.25;6.78;;;10.70;99.90;;;;;;5073824;28;20089;-73
2023/05/24 05:37:12;;;;;;;24.90;7.95;;;10.80;99.90;;;;;;5074258;28;20109;-73
2023/05/24 05:39:38;;;;;;;27.65;8.20;;;10.80;99.90;;;;;;5073908;28;20468;-73
2023/05/24 05:42:04;;;;;;;25.08;8.43;;;10.80;99.90;;;;;;5072466;28;20166;-73
2023/05/24 05:44:30;;;;;;;21.75;9.20;;;10.80;99.90;;;;;;5053694;28;20033;-73
2023/05/24 05:46:56;;;;;;;28.73;8.57;;;10.80;99.90;;;;;;5053878;28;20167;-73
2023/05/24 05:49:21;;;;;;;23.77;8.60;;;10.90;99.90;;;;;;5060942;28;20059;-74
2023/05/24 05:51:47;;;;;;;25.67;8.35;;;10.90;99.90;;;;;;5072330;28;20029;-74
2023/05/24 05:54:14;;;;;;;34.88;10.15;;;11.00;99.90;;;;;;5073443;28;20033;-73
2023/05/24 05:56:44;;;;;;;28.90;8.88;;;11.00;99.90;;;;;;5072360;28;20048;-74
2023/05/24 05:59:11;;;;;;;28.60;8.93;;;11.10;99.90;;;;;;5052764;28;20031;-74
2023/05/24 06:01:37;;;;;;;26.73;8.00;;;11.20;99.90;;;;;;5069851;28;20876;-74
2023/05/24 06:04:02;;;;;;;22.23;8.30;;;11.20;99.90;;;;;;5072991;28;20492;-74
2023/05/24 06:06:28;;;;;;;28.35;9.13;;;11.30;99.90;;;;;;5073527;28;20016;-74
2023/05/24 06:08:54;;;;;;;25.90;8.25;;;11.20;99.90;;;;;;5073147;28;20394;-74
2023/05/24 06:11:20;;;;;;;30.52;9.75;;;11.20;99.90;;;;;;5054866;28;20071;-74
2023/05/24 06:13:45;;;;;;;22.10;8.43;;;11.30;99.90;;;;;;5073029;28;20032;-75
2023/05/24 06:16:11;;;;;;;24.42;8.80;;;11.40;99.90;;;;;;5072930;28;20021;-75
2023/05/24 06:18:37;;;;;;;49.17;10.73;;;11.40;99.90;;;;;;5073209;28;20433;-75
2023/05/24 06:21:03;;;;;;;33.15;8.98;;;11.50;99.90;;;;;;5072669;28;20423;-75
2023/05/24 06:23:28;;;;;;;28.55;8.90;;;11.50;99.90;;;;;;5072784;28;20020;-75
2023/05/24 06:25:55;;;;;;;38.45;9.52;;;11.50;99.90;;;;;;5073048;28;20028;-75
2023/05/24 06:28:21;;;;;;;27.65;8.88;;;11.60;99.90;;;;;;5072678;28;20084;-75
2023/05/24 06:30:47;;;;;;;43.75;11.15;;;11.60;99.90;;;;;;5071770;28;20031;-75
2023/05/24 06:33:12;;;;;;;38.90;9.90;;;11.80;99.90;;;;;;5073066;28;20028;-75
2023/05/24 06:35:38;;;;;;;31.42;9.90;;;11.80;99.90;;;;;;5072846;28;20381;-75
2023/05/24 06:38:04;;;;;;;28.58;10.05;;;11.80;99.90;;;;;;5072338;28;20025;-75
2023/05/24 06:40:30;;;;;;;32.30;9.10;;;12.00;99.90;;;;;;5072821;28;20024;-75
2023/05/24 06:42:57;;;;;;;30.85;9.63;;;12.00;99.90;;;;;;5072945;28;20033;-76
2023/05/24 06:45:23;;;;;;;30.83;8.98;;;12.10;99.90;;;;;;5072723;28;20025;-76
2023/05/24 06:47:48;;;;;;;27.40;9.27;;;12.30;99.90;;;;;;5072842;28;20481;-76
2023/05/24 06:50:15;;;;;;;31.50;10.05;;;12.30;99.90;;;;;;5068464;28;20477;-75
2023/05/24 06:52:41;;;;;;;31.42;10.05;;;12.40;99.90;;;;;;5044800;28;20029;-75
2023/05/24 06:55:07;;;;;;;26.05;9.50;;;12.50;99.90;;;;;;5051912;28;20207;-75
2023/05/24 06:57:33;;;;;;;37.35;11.27;;;12.60;99.90;;;;;;5055081;28;20071;-76
2023/05/24 06:59:58;;;;;;;36.63;12.82;;;12.70;99.90;;;;;;5059825;28;20044;-76
2023/05/24 07:02:26;;;;;;;42.67;12.45;;;12.80;99.90;;;;;;5061016;28;20036;-75
2023/05/24 07:04:52;;;;;;;31.38;11.82;;;13.10;99.90;;;;;;5064406;28;20028;-75
2023/05/24 07:07:19;;;;;;;35.60;12.10;;;13.20;99.90;;;;;;5054913;28;20025;-75
2023/05/24 07:09:46;;;;;;;40.80;12.52;;;13.40;99.90;;;;;;5055263;28;20041;-75
2023/05/24 07:12:11;;;;;;;34.00;12.32;;;13.50;99.90;;;;;;5062061;28;20020;-76
2023/05/24 07:14:37;;;;;;;34.80;12.02;;;13.60;99.90;;;;;;5062130;28;20094;-76
2023/05/24 07:17:03;;;;;;;29.77;12.35;;;13.70;99.90;;;;;;5065847;28;20108;-74
2023/05/24 07:19:29;;;;;;;32.40;11.45;;;13.80;99.90;;;;;;5071992;28;20028;-76
2023/05/24 07:21:55;;;;;;;30.15;11.52;;;13.80;99.90;;;;;;5072129;28;20103;-76
2023/05/24 07:24:22;;;;;;;29.75;11.75;;;13.90;99.90;;;;;;5053746;28;20029;-76
2023/05/24 07:26:49;;;;;;;36.40;12.35;;;13.90;99.90;;;;;;5071916;28;20024;-76
2023/05/24 07:29:15;;;;;;;32.65;11.57;;;14.00;99.90;;;;;;5071968;28;20033;-76
2023/05/24 07:31:41;;;;;;;36.40;10.20;;;14.20;99.90;;;;;;5071917;28;20017;-76
2023/05/24 07:34:08;;;;;;;25.10;9.40;;;14.10;99.90;;;;;;5072145;28;20055;-75
2023/05/24 07:36:34;;;;;;;26.63;10.05;;;14.00;99.90;;;;;;5070351;28;20017;-76
2023/05/24 07:39:00;;;;;;;30.80;9.82;;;14.20;99.90;;;;;;5071473;28;20036;-82
2023/05/24 07:41:27;;;;;;;20.50;7.93;;;14.40;99.90;;;;;;5071602;28;20024;-76
2023/05/24 07:43:54;;;;;;;26.08;8.02;;;14.60;99.90;;;;;;5058382;28;20025;-75
2023/05/24 07:46:20;;;;;;;31.25;9.18;;;14.70;99.90;;;;;;5052031;28;20029;-76
2023/05/24 07:48:46;;;;;;;22.73;7.53;;;14.90;99.90;;;;;;5051666;28;20504;-76
2023/05/24 07:51:11;;;;;;;22.88;8.43;;;15.00;99.90;;;;;;5051752;28;20090;-77
2023/05/24 07:53:37;;;;;;;24.55;7.18;;;15.30;99.90;;;;;;5051903;28;20040;-76
2023/05/24 07:56:03;;;;;;;22.80;7.05;;;15.50;99.90;;;;;;5033816;28;20028;-77
2023/05/24 07:58:29;;;;;;;20.08;5.22;;;15.60;99.90;;;;;;5037165;28;20434;-75
2023/05/24 08:00:54;;;;;;;20.00;5.00;;;15.80;99.90;;;;;;5067627;28;20039;-74
2023/05/24 08:03:20;;;;;;;23.40;6.03;;;16.00;99.90;;;;;;5061505;28;20103;-76
2023/05/24 08:05:46;;;;;;;21.40;6.13;;;16.10;99.90;;;;;;5057572;28;20029;-74
2023/05/24 08:08:11;;;;;;;20.92;6.10;;;16.20;99.90;;;;;;5041541;28;20372;-77
2023/05/24 08:10:37;;;;;;;32.53;7.65;;;16.30;99.90;;;;;;5041843;28;20117;-74
2023/05/24 08:13:04;;;;;;;14.18;5.63;;;16.50;99.90;;;;;;5053782;28;20099;-77
2023/05/24 08:15:30;;;;;;;33.45;6.75;;;16.60;99.90;;;;;;5061767;28;20132;-76
2023/05/24 08:17:55;;;;;;;22.42;6.47;;;16.80;99.90;;;;;;5063305;28;20513;-76
2023/05/24 08:20:22;;;;;;;23.77;7.65;;;16.80;99.90;;;;;;5067600;28;20050;-77
2023/05/24 08:22:48;;;;;;;18.38;7.50;;;16.80;99.90;;;;;;5074406;28;20104;-77
2023/05/24 08:25:14;;;;;;;16.67;6.18;;;16.90;99.90;;;;;;5072758;28;20067;-77
2023/05/24 08:27:39;;;;;;;13.93;5.45;;;16.90;99.90;;;;;;5075004;28;20545;-76
2023/05/24 08:30:07;;;;;;;13.32;5.60;;;16.90;99.90;;;;;;5074016;28;20044;-76
2023/05/24 08:32:33;;;;;;;14.20;5.63;;;16.90;99.90;;;;;;5073314;28;20051;-76
2023/05/24 08:34:59;;;;;;;16.50;5.15;;;17.10;99.90;;;;;;5074281;28;20469;-77
2023/05/24 08:37:25;;;;;;;18.58;4.55;;;17.20;99.90;;;;;;5075202;28;20021;-76
2023/05/24 08:39:51;;;;;;;16.13;5.05;;;17.20;99.90;;;;;;5066689;28;20036;-76
2023/05/24 08:42:16;;;;;;;17.85;5.05;;;17.30;99.90;;;;;;5061422;28;20017;-75
2023/05/24 08:44:56;;;;;;;18.33;4.88;;;17.50;99.90;;;;;;5047190;28;20226;-77
2023/05/24 08:47:24;;;;;;;14.95;5.85;;;17.70;99.90;;;;;;5037310;28;20385;-76
2023/05/24 08:49:50;;;;;;;18.33;6.03;;;17.80;99.90;;;;;;5051397;28;20029;-76
2023/05/24 08:52:18;;;;;;;17.25;6.35;;;18.00;99.90;;;;;;5051154;28;20551;-78
2023/05/24 08:54:45;;;;;;;17.40;6.30;;;18.20;99.90;;;;;;5036603;28;20031;-78
2023/05/24 08:57:12;;;;;;;18.65;6.15;;;18.20;99.90;;;;;;5054814;28;20025;-78
2023/05/24 08:59:42;;;;;;;15.30;6.47;;;18.20;99.90;;;;;;5051718;28;20017;-78
2023/05/24 09:02:14;;;;;;;14.25;4.90;;;18.40;99.90;;;;;;5033485;28;20115;-78
2023/05/24 09:04:43;;;;;;;20.85;6.15;;;18.60;99.90;;;;;;5050714;28;20021;-77
2023/05/24 09:07:11;;;;;;;15.20;6.13;;;18.70;99.90;;;;;;5062192;28;20025;-78
2023/05/24 09:09:43;;;;;;;15.05;4.75;;;18.70;99.90;;;;;;5053550;28;20036;-83
2023/05/24 09:12:13;;;;;;;10.43;3.92;;;18.50;99.90;;;;;;5051439;28;20465;-81
2023/05/24 09:14:44;;;;;;;10.88;3.75;;;18.30;99.90;;;;;;5042144;28;20060;-81
2023/05/24 09:17:11;;;;;;;9.82;3.65;;;18.50;99.90;;;;;;5040437;28;20101;-82
2023/05/24 09:19:38;;;;;;;14.60;4.15;;;18.90;99.90;;;;;;5053310;28;20024;-78
2023/05/24 09:22:05;;;;;;;17.33;4.22;;;19.10;99.90;;;;;;5052786;28;20420;-81
2023/05/24 09:24:40;;;;;;;21.65;4.60;;;19.30;99.90;;;;;;5053994;28;20485;-78
2023/05/24 09:27:06;;;;;;;10.48;3.95;;;19.40;99.90;;;;;;5068620;28;20032;-76
2023/05/24 09:29:35;;;;;;;16.63;5.32;;;18.90;99.90;;;;;;5074198;28;20110;-77
2023/05/24 09:32:03;;;;;;;11.43;4.10;;;18.70;99.90;;;;;;5073432;28;20091;-76
2023/05/24 09:34:36;;;;;;;16.60;5.40;;;18.80;99.90;;;;;;5073912;28;20081;-76
2023/05/24 09:37:02;;;;;;;11.77;4.53;;;18.70;99.90;;;;;;5055519;28;20017;-76
2023/05/24 09:39:28;;;;;;;16.95;4.82;;;18.50;99.90;;;;;;5055335;28;20051;-78
2023/05/24 09:41:55;;;;;;;15.52;4.63;;;18.40;99.90;;;;;;5072969;28;20373;-77
2023/05/24 09:44:26;;;;;;;11.10;4.00;;;18.20;99.90;;;;;;5072511;28;20028;-78
2023/05/24 09:46:53;;;;;;;15.32;4.57;;;18.30;99.90;;;;;;5057693;28;20114;-79
2023/05/24 09:49:22;;;;;;;10.57;4.30;;;18.30;99.90;;;;;;5052265;28;20033;-78
2023/05/24 09:51:48;;;;;;;15.77;4.30;;;18.40;99.90;;;;;;5053840;28;20552;-80
2023/05/24 09:54:14;;;;;;;13.27;3.88;;;18.40;99.90;;;;;;5053247;28;20116;-82
2023/05/24 09:56:40;;;;;;;11.93;4.32;;;18.30;99.90;;;;;;5053435;28;20401;-78
2023/05/24 09:59:07;;;;;;;89.30;11.38;;;18.30;99.90;;;;;;5063465;28;20131;-80
2023/05/24 10:01:34;;;;;;;19.58;4.82;;;18.10;99.90;;;;;;5063389;28;20056;-80
2023/05/24 10:04:01;;;;;;;15.18;4.72;;;18.10;99.90;;;;;;5068723;28;20020;-78
2023/05/24 10:06:28;;;;;;;18.55;4.80;;;18.00;99.90;;;;;;5071343;28;20024;-78
2023/05/24 10:08:55;;;;;;;26.92;4.72;;;18.20;99.90;;;;;;5071524;28;20052;-79
2023/05/24 10:11:21;;;;;;;61.83;7.50;;;18.50;99.90;;;;;;5072775;28;20074;-79
2023/05/24 10:13:48;;;;;;;14.30;4.25;;;18.80;99.90;;;;;;5039195;28;20428;-78
2023/05/24 10:16:15;;;;;;;11.10;4.28;;;19.20;99.90;;;;;;5051886;28;20027;-80
2023/05/24 10:18:41;;;;;;;13.60;4.00;;;19.50;99.90;;;;;;5052732;28;20048;-79
2023/05/24 10:21:08;;;;;;;14.07;4.28;;;19.70;99.90;;;;;;5073819;28;20358;-79
2023/05/24 10:23:36;;;;;;;16.70;4.97;;;19.80;99.90;;;;;;5074793;28;20035;-79
2023/05/24 10:26:06;;;;;;;13.57;4.82;;;19.90;99.90;;;;;;5072959;28;20032;-78
2023/05/24 10:28:40;;;;;;;34.50;6.15;;;19.90;99.90;;;;;;5072367;28;20472;-79
2023/05/24 10:31:08;;;;;;;15.15;4.72;;;19.60;99.90;;;;;;5066038;28;20047;-79
2023/05/24 10:33:36;;;;;;;17.10;4.38;;;19.50;99.90;;;;;;5058102;28;20473;-78
2023/05/24 10:36:08;;;;;;;17.02;4.07;;;19.70;99.90;;;;;;5052755;28;20108;-78
2023/05/24 10:38:38;;;;;;;17.75;4.60;;;19.90;99.90;;;;;;5052183;28;20504;-78
2023/05/24 10:41:04;;;;;;;13.93;4.32;;;19.80;99.90;;;;;;5052352;28;20377;-78
2023/05/24 10:43:30;;;;;;;15.10;4.38;;;19.70;99.90;;;;;;5063023;28;20099;-77
2023/05/24 10:45:57;;;;;;;15.32;4.18;;;19.50;99.90;;;;;;5065549;28;20060;-78
2023/05/24 10:48:23;;;;;;;11.82;3.90;;;19.40;99.90;;;;;;5052376;28;20094;-76
2023/05/24 10:50:49;;;;;;;10.85;4.30;;;19.60;99.90;;;;;;5056115;28;20075;-77
2023/05/24 10:53:22;;;;;;;13.00;4.88;;;19.80;99.90;;;;;;5060322;28;20020;-79
2023/05/24 10:55:57;;;;;;;15.65;5.30;;;20.10;99.90;;;;;;5044134;28;20396;-80
2023/05/24 10:58:58;;;;;;;19.80;6.18;;;19.80;99.90;;;;;;5053831;28;20025;-78
2023/05/24 11:01:28;;;;;;;32.58;5.60;;;19.50;99.90;;;;;;5059025;28;20043;-80
2023/05/24 11:04:10;;;;;;;14.65;4.60;;;19.30;99.90;;;;;;5050219;28;20027;-81
2023/05/24 11:06:56;;;;;;;14.43;4.07;;;19.30;99.90;;;;;;5055140;28;20037;-77
2023/05/24 11:09:23;;;;;;;13.25;4.70;;;19.60;99.90;;;;;;5050862;28;20085;-76
2023/05/24 11:11:53;;;;;;;15.43;4.65;;;19.60;99.90;;;;;;5083054;28;20024;-76
2023/05/24 11:14:22;;;;;;;15.75;5.13;;;19.50;99.90;;;;;;5091759;28;20088;-76
2023/05/24 11:16:48;;;;;;;15.00;5.47;;;19.40;99.90;;;;;;5065862;28;20017;-76
2023/05/24 11:19:17;;;;;;;16.50;4.38;;;19.20;99.90;;;;;;5043322;28;20032;-75
2023/05/24 11:21:45;;;;;;;13.27;4.60;;;19.20;99.90;;;;;;5071235;28;20484;-75
2023/05/24 11:24:10;;;;;;;13.57;4.05;;;19.00;99.90;;;;;;5070832;28;20436;-76
2023/05/24 11:26:36;;;;;;;9.25;4.22;;;18.90;99.90;;;;;;5071454;28;20021;-76
2023/05/24 11:29:04;;;;;;;15.50;4.10;;;18.80;99.90;;;;;;5063146;28;20392;-76
2023/05/24 11:31:30;;;;;;;13.48;4.20;;;18.70;99.90;;;;;;5050540;28;20027;-76
2023/05/24 11:33:55;;;;;;;16.27;4.78;;;18.60;99.90;;;;;;5071836;28;20025;-75
2023/05/24 11:36:21;;;;;;;13.07;4.30;;;18.60;99.90;;;;;;5052456;28;20086;-76
2023/05/24 11:38:48;;;;;;;17.23;4.55;;;18.50;99.90;;;;;;5070652;28;20025;-75
2023/05/24 11:41:15;;;;;;;12.75;3.47;;;18.60;99.90;;;;;;5071184;28;20047;-79
2023/05/24 11:43:41;;;;;;;10.90;4.03;;;18.60;99.90;;;;;;5057244;28;20028;-79
2023/05/24 11:46:07;;;;;;;17.58;3.70;;;18.70;99.90;;;;;;5057121;28;20033;-79
2023/05/24 11:48:33;;;;;;;11.57;3.75;;;18.80;99.90;;;;;;5035914;28;20029;-85
2023/05/24 11:50:59;;;;;;;14.55;3.75;;;18.90;99.90;;;;;;5065723;28;20029;-80
2023/05/24 11:53:25;;;;;;;20.02;4.18;;;18.80;99.90;;;;;;5054592;28;20025;-77
2023/05/24 11:55:53;;;;;;;16.48;4.28;;;18.90;99.90;;;;;;5066960;28;20429;-78
2023/05/24 11:58:22;;;;;;;9.65;3.45;;;18.80;99.90;;;;;;5055437;28;20469;-79
2023/05/24 12:00:50;;;;;;;13.68;3.95;;;18.60;99.90;;;;;;5055381;28;20032;-80
2023/05/24 12:03:16;;;;;;;12.55;4.55;;;18.60;99.90;;;;;;5054944;28;20032;-79
2023/05/24 12:05:43;;;;;;;10.43;4.15;;;18.50;99.90;;;;;;5054977;28;20025;-78
2023/05/24 12:08:14;;;;;;;12.10;4.00;;;18.60;99.90;;;;;;5059935;28;20044;-80
2023/05/24 12:10:41;;;;;;;9.40;3.50;;;18.60;99.90;;;;;;5069327;28;20043;-78
2023/05/24 12:13:23;;;;;;;13.55;3.83;;;18.60;99.90;;;;;;5065599;28;20103;-78
2023/05/24 12:15:53;;;;;;;16.35;4.03;;;18.60;99.90;;;;;;5045434;28;20389;-80
2023/05/24 12:18:23;;;;;;;9.35;4.10;;;18.60;99.90;;;;;;5059886;28;20036;-79
2023/05/24 12:20:49;;;;;;;7.68;3.35;;;18.70;99.90;;;;;;5056776;28;20032;-81
2023/05/24 12:23:19;;;;;;;15.80;4.43;;;18.70;99.90;;;;;;5074269;28;20469;-82
2023/05/24 12:25:45;;;;;;;11.48;4.15;;;18.80;99.90;;;;;;5075066;28;20060;-80
2023/05/24 12:28:12;;;;;;;15.02;4.90;;;18.70;99.90;;;;;;5073708;28;20441;-80
2023/05/24 12:30:42;;;;;;;32.95;5.47;;;18.80;99.90;;;;;;5074305;28;20055;-81
2023/05/24 12:33:11;;;;;;;11.30;3.53;;;18.80;99.90;;;;;;5073756;28;20052;-78
2023/05/24 12:35:40;;;;;;;11.07;4.53;;;18.80;99.90;;;;;;5062867;28;20082;-79
2023/05/24 12:38:09;;;;;;;9.25;3.80;;;18.70;99.90;;;;;;5065478;28;20500;-79